createdAt,value
2023-02-07T00:01:38.773Z,93.02
2023-02-07T00:04:13.113Z,92.84
2023-02-07T00:06:47.066Z,92.72
2023-02-07T00:09:21.328Z,92.65
2023-02-07T00:11:54.143Z,92.68
2023-02-07T00:14:27.721Z,92.89
2023-02-07T00:17:01.786Z,92.71
2023-02-07T00:19:36.393Z,92.55
2023-02-07T00:22:09.100Z,92.39
2023-02-07T00:24:42.801Z,91.96
2023-02-07T00:27:17.281Z,91.50
2023-02-07T00:29:51.448Z,90.97
2023-02-07T00:32:25.388Z,90.96
2023-02-07T00:34:58.547Z,90.84
2023-02-07T00:37:32.832Z,90.76
2023-02-07T00:40:07.366Z,90.40
2023-02-07T00:42:42.551Z,90.45
2023-02-07T00:45:16.470Z,90.50
2023-02-07T00:47:50.478Z,90.59
2023-02-07T00:50:23.503Z,90.66
2023-02-07T00:52:57.364Z,90.90
2023-02-07T00:55:30.436Z,91.12
2023-02-07T00:58:04.081Z,91.34
2023-02-07T01:00:38.661Z,91.53
2023-02-07T01:03:12.539Z,91.25
2023-02-07T01:05:47.406Z,90.73
2023-02-07T01:08:22.335Z,90.45
2023-02-07T01:10:57.296Z,90.38
2023-02-07T01:13:31.722Z,90.21
2023-02-07T01:16:06.334Z,90.24
2023-02-07T01:18:40.560Z,90.19
2023-02-07T01:21:23.881Z,90.04
2023-02-07T01:23:57.899Z,90.16
2023-02-07T01:26:30.923Z,90.31
2023-02-07T01:29:04.824Z,90.61
2023-02-07T01:31:38.951Z,90.83
2023-02-07T01:34:14.682Z,91.06
2023-02-07T01:36:48.736Z,91.28
2023-02-07T01:39:22.880Z,91.57
2023-02-07T01:41:57.043Z,91.40
2023-02-07T01:44:35.546Z,91.43
2023-02-07T01:47:15.329Z,91.43
2023-02-07T01:49:52.024Z,91.38
2023-02-07T01:52:36.143Z,91.32
2023-02-07T01:55:16.664Z,91.41
2023-02-07T01:57:50.523Z,91.46
2023-02-07T02:00:24.880Z,91.24
2023-02-07T02:02:59.189Z,91.14
2023-02-07T02:05:34.039Z,90.79
2023-02-07T02:08:07.900Z,90.35
2023-02-07T02:11:02.917Z,90.22
2023-02-07T02:13:45.462Z,90.38
2023-02-07T02:16:39.677Z,90.64
2023-02-07T02:19:40.937Z,90.53
2023-02-07T02:22:57.590Z,89.98
2023-02-07T02:25:58.183Z,89.78
2023-02-07T02:29:09.832Z,89.81
2023-02-07T02:32:33.864Z,89.77
2023-02-07T02:35:20.937Z,89.79
2023-02-07T02:38:11.761Z,89.94
2023-02-07T02:41:01.935Z,90.18
2023-02-07T02:44:04.429Z,90.37
2023-02-07T02:46:40.416Z,89.83
2023-02-07T02:49:17.146Z,89.61
2023-02-07T02:51:54.947Z,89.83
2023-02-07T02:54:35.247Z,90.01
2023-02-07T02:57:51.390Z,89.98
2023-02-07T03:01:10.810Z,89.87
2023-02-07T03:04:04.801Z,90.09
2023-02-07T03:06:44.849Z,90.36
2023-02-07T03:09:35.582Z,90.43
2023-02-07T03:12:16.911Z,90.37
2023-02-07T03:15:09.274Z,90.74
2023-02-07T03:18:00.128Z,90.76
2023-02-07T03:20:41.696Z,90.92
2023-02-07T03:23:16.474Z,91.17
2023-02-07T03:25:52.209Z,91.34
2023-02-07T03:28:28.393Z,91.56
2023-02-07T03:31:03.966Z,91.74
2023-02-07T03:33:37.993Z,91.78
2023-02-07T03:36:23.809Z,91.87
2023-02-07T03:38:57.641Z,91.98
2023-02-07T03:41:47.843Z,92.06
2023-02-07T03:44:23.789Z,92.17
2023-02-07T03:46:58.159Z,92.29
2023-02-07T03:49:32.066Z,92.35
2023-02-07T03:52:06.105Z,92.21
2023-02-07T03:54:38.987Z,92.29
2023-02-07T03:57:13.208Z,92.34
2023-02-07T03:59:47.753Z,92.39
2023-02-07T04:02:21.759Z,92.30
2023-02-07T04:04:55.578Z,92.43
2023-02-07T04:07:28.544Z,92.44
2023-02-07T04:10:03.623Z,92.45
2023-02-07T04:12:37.960Z,92.57
2023-02-07T04:15:11.072Z,92.43
2023-02-07T04:17:44.793Z,92.45
2023-02-07T04:20:19.349Z,92.40
2023-02-07T04:22:53.587Z,92.44
2023-02-07T04:25:27.947Z,92.35
2023-02-07T04:28:01.691Z,92.17
2023-02-07T04:30:35.880Z,92.17
2023-02-07T04:33:09.866Z,92.14
2023-02-07T04:35:43.706Z,91.81
2023-02-07T04:38:16.608Z,91.32
2023-02-07T04:40:50.282Z,90.94
2023-02-07T04:43:23.142Z,90.81
2023-02-07T04:45:57.049Z,90.42
2023-02-07T04:48:29.932Z,90.48
2023-02-07T04:51:04.029Z,90.37
2023-02-07T04:53:37.005Z,90.42
2023-02-07T04:56:10.765Z,90.54
2023-02-07T04:58:45.135Z,90.58
2023-02-07T05:01:19.086Z,90.67
2023-02-07T05:03:53.106Z,90.74
2023-02-07T05:06:27.401Z,90.67
2023-02-07T05:09:01.822Z,90.71
2023-02-07T05:11:34.671Z,90.61
2023-02-07T05:14:08.376Z,90.42
2023-02-07T05:16:42.913Z,90.32
2023-02-07T05:19:16.145Z,90.34
2023-02-07T05:21:50.143Z,90.33
2023-02-07T05:24:24.407Z,90.24
2023-02-07T05:26:58.201Z,89.92
2023-02-07T05:29:32.055Z,89.71
2023-02-07T05:32:24.922Z,89.63
2023-02-07T05:34:58.906Z,89.52
2023-02-07T05:37:32.776Z,89.52
2023-02-07T05:40:08.487Z,89.61
2023-02-07T05:42:42.616Z,89.66
2023-02-07T05:45:16.556Z,89.71
2023-02-07T05:47:52.022Z,89.69
2023-02-07T05:50:26.676Z,89.71
2023-02-07T05:53:02.504Z,89.47
2023-02-07T05:55:38.140Z,89.52
2023-02-07T05:58:12.786Z,89.32
2023-02-07T06:00:47.213Z,89.25
2023-02-07T06:03:21.152Z,89.19
2023-02-07T06:05:54.040Z,89.15
2023-02-07T06:08:28.388Z,88.81
2023-02-07T06:11:01.194Z,88.67
2023-02-07T06:13:35.822Z,88.66
2023-02-07T06:16:11.050Z,88.66
2023-02-07T06:18:45.082Z,88.48
2023-02-07T06:21:21.320Z,88.36
2023-02-07T06:23:55.524Z,88.47
2023-02-07T06:26:28.638Z,88.34
2023-02-07T06:29:02.435Z,88.24
2023-02-07T06:31:37.028Z,88.07
2023-02-07T06:34:10.920Z,88.03
2023-02-07T06:36:44.909Z,87.83
2023-02-07T06:39:19.300Z,87.99
2023-02-07T06:41:53.111Z,87.59
2023-02-07T06:44:27.407Z,87.54
2023-02-07T06:47:01.445Z,87.36
2023-02-07T06:49:36.732Z,87.46
2023-02-07T06:52:10.878Z,87.26
2023-02-07T06:54:45.401Z,87.20
2023-02-07T06:57:19.435Z,87.05
2023-02-07T06:59:53.560Z,87.11
2023-02-07T07:02:27.209Z,87.28
2023-02-07T07:05:01.448Z,87.00
2023-02-07T07:07:36.004Z,86.90
2023-02-07T07:10:10.679Z,86.93
2023-02-07T07:12:44.701Z,86.84
2023-02-07T07:15:19.606Z,86.76
2023-02-07T07:17:52.570Z,86.83
2023-02-07T07:20:26.229Z,86.75
2023-02-07T07:22:59.896Z,86.76
2023-02-07T07:25:34.123Z,86.76
2023-02-07T07:28:08.000Z,86.60
2023-02-07T07:30:41.998Z,86.73
2023-02-07T07:33:14.947Z,86.59
2023-02-07T07:35:48.977Z,86.45
2023-02-07T07:38:22.892Z,86.42
2023-02-07T07:40:57.631Z,86.34
2023-02-07T07:43:31.200Z,86.30
2023-02-07T07:46:07.637Z,86.25
2023-02-07T07:48:41.874Z,86.16
2023-02-07T07:51:15.974Z,85.80
2023-02-07T07:53:50.430Z,85.04
2023-02-07T07:56:23.334Z,85.12
2023-02-07T07:58:58.560Z,84.79
2023-02-07T08:01:32.444Z,84.51
2023-02-07T08:04:07.697Z,84.17
2023-02-07T08:06:41.552Z,84.26
2023-02-07T08:09:15.824Z,84.55
2023-02-07T08:11:49.797Z,84.78
2023-02-07T08:14:22.709Z,84.51
2023-02-07T08:16:56.544Z,84.27
2023-02-07T08:19:29.462Z,84.15
2023-02-07T08:22:03.451Z,84.12
2023-02-07T08:24:37.465Z,84.38
2023-02-07T08:27:11.575Z,83.95
2023-02-07T08:29:46.419Z,83.69
2023-02-07T08:32:21.030Z,83.51
2023-02-07T08:34:56.285Z,83.89
2023-02-07T08:37:30.395Z,83.66
2023-02-07T08:40:07.264Z,83.30
2023-02-07T08:42:42.545Z,83.05
2023-02-07T08:45:17.961Z,82.91
2023-02-07T08:47:52.069Z,82.36
2023-02-07T08:50:25.953Z,82.29
2023-02-07T08:52:59.828Z,82.02
2023-02-07T08:55:34.029Z,82.58
2023-02-07T08:58:07.877Z,82.21
2023-02-07T09:00:44.078Z,82.18
2023-02-07T09:03:17.800Z,81.88
2023-02-07T09:05:51.474Z,81.99
2023-02-07T09:08:25.823Z,82.25
2023-02-07T09:10:59.730Z,82.43
2023-02-07T09:13:32.685Z,82.66
2023-02-07T09:16:07.529Z,82.17
2023-02-07T09:18:43.353Z,82.12
2023-02-07T09:21:18.517Z,82.46
2023-02-07T09:23:52.337Z,82.25
2023-02-07T09:26:30.969Z,82.17
2023-02-07T09:29:05.446Z,82.01
2023-02-07T09:31:40.102Z,82.02
2023-02-07T09:34:14.340Z,81.85
2023-02-07T09:36:49.922Z,82.19
2023-02-07T09:39:24.406Z,82.22
2023-02-07T09:42:24.254Z,82.45
2023-02-07T09:45:03.136Z,82.12
2023-02-07T09:47:39.445Z,82.17
2023-02-07T09:50:24.064Z,82.13
2023-02-07T09:53:18.741Z,81.88
2023-02-07T09:56:02.548Z,81.93
2023-02-07T09:58:50.095Z,81.59
2023-02-07T10:01:31.333Z,81.33
2023-02-07T10:04:26.601Z,81.28
2023-02-07T10:07:02.089Z,81.20
2023-02-07T10:09:42.441Z,81.04
2023-02-07T10:12:51.155Z,81.22
2023-02-07T10:15:35.803Z,80.35
2023-02-07T10:18:36.372Z,79.99
2023-02-07T10:21:26.133Z,80.18
2023-02-07T10:24:35.837Z,80.27
2023-02-07T10:27:15.507Z,80.44
2023-02-07T10:30:18.278Z,79.89
2023-02-07T10:32:53.412Z,80.20
2023-02-07T10:35:39.737Z,80.61
2023-02-07T10:38:42.370Z,80.90
2023-02-07T10:41:23.451Z,80.81
2023-02-07T10:43:57.486Z,81.00
2023-02-07T10:46:31.322Z,80.75
2023-02-07T10:49:05.230Z,80.98
2023-02-07T10:51:44.421Z,80.87
2023-02-07T10:54:23.066Z,80.41
2023-02-07T10:57:03.009Z,80.42
2023-02-07T10:59:49.247Z,80.74
2023-02-07T11:02:50.060Z,80.26
2023-02-07T11:05:27.579Z,79.79
2023-02-07T11:08:10.156Z,80.06
2023-02-07T11:10:46.273Z,80.49
2023-02-07T11:13:24.494Z,80.86
2023-02-07T11:16:10.256Z,80.76
2023-02-07T11:18:57.636Z,80.95
2023-02-07T11:21:46.963Z,80.40
2023-02-07T11:24:30.015Z,79.84
2023-02-07T11:27:13.228Z,79.79
2023-02-07T11:30:00.639Z,79.61
2023-02-07T11:32:36.635Z,79.63
2023-02-07T11:35:11.745Z,80.02
2023-02-07T11:37:50.185Z,79.97
2023-02-07T11:40:34.469Z,79.87
2023-02-07T11:43:25.473Z,79.68
2023-02-07T11:46:09.223Z,79.76
2023-02-07T11:48:43.570Z,79.73
2023-02-07T11:51:18.028Z,79.80
2023-02-07T11:53:58.493Z,79.12
2023-02-07T11:56:37.059Z,78.77
2023-02-07T11:59:26.851Z,78.28
2023-02-07T12:02:25.872Z,78.15
2023-02-07T12:05:19.813Z,78.52
2023-02-07T12:08:04.032Z,78.64
2023-02-07T12:10:41.187Z,78.84
2023-02-07T12:13:38.851Z,78.41
2023-02-07T12:16:17.588Z,78.11
2023-02-07T12:18:56.940Z,78.18
2023-02-07T12:21:58.755Z,78.52
2023-02-07T12:24:48.620Z,78.58
2023-02-07T12:27:26.276Z,78.36
2023-02-07T12:30:30.914Z,78.27
2023-02-07T12:33:31.937Z,78.07
2023-02-07T12:36:19.203Z,78.52
2023-02-07T12:39:18.233Z,78.50
2023-02-07T12:42:02.759Z,78.76
2023-02-07T12:44:41.243Z,79.03
2023-02-07T12:47:56.038Z,79.03
2023-02-07T12:50:57.896Z,79.12
2023-02-07T12:53:37.099Z,79.30
2023-02-07T12:56:24.563Z,79.34
2023-02-07T12:59:24.145Z,79.63
2023-02-07T13:02:37.426Z,79.92
2023-02-07T13:05:35.256Z,80.02
2023-02-07T13:08:36.462Z,79.58
2023-02-07T13:11:24.613Z,79.07
2023-02-07T13:14:36.525Z,79.52
2023-02-07T13:17:18.315Z,79.69
2023-02-07T13:20:13.261Z,79.80
2023-02-07T13:23:03.848Z,79.97
2023-02-07T13:25:41.891Z,80.10
2023-02-07T13:28:26.907Z,80.02
2023-02-07T13:31:01.946Z,80.13
2023-02-07T13:33:39.583Z,80.56
2023-02-07T13:36:18.592Z,80.52
2023-02-07T13:39:36.783Z,80.26
2023-02-07T13:42:43.541Z,80.37
2023-02-07T13:45:42.460Z,80.34
2023-02-07T13:48:29.365Z,80.58
2023-02-07T13:51:24.538Z,80.76
2023-02-07T13:54:20.448Z,81.19
2023-02-07T13:57:21.802Z,81.71
2023-02-07T14:00:16.735Z,82.07
2023-02-07T14:02:54.928Z,82.19
2023-02-07T14:05:33.076Z,82.35
2023-02-07T14:08:22.433Z,82.50
2023-02-07T14:11:01.641Z,82.37
2023-02-07T14:13:37.195Z,82.87
2023-02-07T14:16:15.288Z,82.78
2023-02-07T14:18:55.806Z,82.93
2023-02-07T14:21:36.189Z,82.89
2023-02-07T14:24:21.870Z,82.79
2023-02-07T14:27:01.067Z,82.92
2023-02-07T14:29:55.205Z,83.09
2023-02-07T14:33:06.715Z,83.02
2023-02-07T14:36:08.743Z,83.07
2023-02-07T14:39:09.266Z,83.15
2023-02-07T14:41:44.945Z,83.44
2023-02-07T14:44:37.035Z,83.59
2023-02-07T14:47:18.285Z,83.76
2023-02-07T14:49:55.432Z,83.95
2023-02-07T14:52:35.915Z,84.04
2023-02-07T14:55:20.037Z,83.89
2023-02-07T14:58:08.519Z,83.95
2023-02-07T15:00:51.732Z,84.05
2023-02-07T15:03:25.568Z,84.19
2023-02-07T15:06:03.132Z,84.18
2023-02-07T15:08:38.106Z,84.27
2023-02-07T15:11:13.956Z,84.49
2023-02-07T15:13:50.152Z,84.71
2023-02-07T15:16:37.147Z,84.88
2023-02-07T15:19:38.799Z,84.84
2023-02-07T15:22:25.419Z,85.16
2023-02-07T15:24:52.572Z,85.13
2023-02-07T15:27:29.705Z,85.26
2023-02-07T15:30:08.141Z,85.36
2023-02-07T15:32:49.814Z,85.58
2023-02-07T15:35:30.191Z,85.62
2023-02-07T15:38:20.716Z,85.61
2023-02-07T15:40:57.639Z,85.71
2023-02-07T15:43:36.597Z,85.74
2023-02-07T15:46:13.494Z,85.54
2023-02-07T15:48:58.400Z,85.51
2023-02-07T15:51:34.143Z,85.62
2023-02-07T15:54:08.478Z,85.60
2023-02-07T15:56:42.367Z,85.60
2023-02-07T15:59:18.184Z,85.47
2023-02-07T16:01:57.766Z,85.40
2023-02-07T16:04:33.233Z,85.50
2023-02-07T16:07:11.372Z,85.41
2023-02-07T16:09:47.611Z,85.47
2023-02-07T16:12:46.112Z,85.46
2023-02-07T16:15:32.984Z,85.39
2023-02-07T16:18:07.998Z,85.44
2023-02-07T16:20:43.684Z,85.43
2023-02-07T16:23:17.471Z,85.54
2023-02-07T16:25:51.416Z,85.54
2023-02-07T16:28:25.520Z,85.67
2023-02-07T16:31:00.706Z,85.60
2023-02-07T16:33:34.639Z,85.64
2023-02-07T16:36:14.672Z,85.72
2023-02-07T16:38:48.452Z,85.56
2023-02-07T16:41:34.411Z,85.73
2023-02-07T16:44:17.556Z,85.87
2023-02-07T16:46:51.615Z,86.06
2023-02-07T16:49:28.227Z,86.05
2023-02-07T16:52:02.324Z,86.15
2023-02-07T16:54:36.243Z,85.96
2023-02-07T16:57:10.678Z,86.16
2023-02-07T16:59:43.878Z,86.06
2023-02-07T17:02:19.369Z,86.03
2023-02-07T17:04:53.231Z,86.18
2023-02-07T17:07:27.136Z,86.33
2023-02-07T17:10:01.418Z,86.44
2023-02-07T17:12:37.178Z,86.52
2023-02-07T17:15:12.483Z,86.72
2023-02-07T17:17:46.416Z,86.86
2023-02-07T17:20:29.443Z,87.13
2023-02-07T17:23:03.319Z,87.30
2023-02-07T17:25:37.983Z,87.57
2023-02-07T17:28:18.276Z,87.78
2023-02-07T17:30:52.537Z,87.92
2023-02-07T17:33:26.485Z,88.02
2023-02-07T17:35:59.385Z,88.14
2023-02-07T17:38:33.115Z,88.24
2023-02-07T17:41:06.638Z,88.32
2023-02-07T17:43:41.947Z,88.49
2023-02-07T17:46:25.687Z,88.61
2023-02-07T17:48:59.934Z,88.78
2023-02-07T17:51:34.315Z,88.97
2023-02-07T17:54:07.285Z,89.03
2023-02-07T17:56:41.794Z,89.15
2023-02-07T17:59:24.398Z,89.27
2023-02-07T18:01:58.438Z,89.35
2023-02-07T18:04:32.473Z,89.37
2023-02-07T18:07:07.021Z,89.46
2023-02-07T18:09:41.066Z,89.48
2023-02-07T18:12:14.222Z,89.48
2023-02-07T18:14:48.869Z,89.57
2023-02-07T18:17:25.259Z,89.63
2023-02-07T18:19:59.107Z,89.46
2023-02-07T18:22:33.236Z,89.55
2023-02-07T18:25:07.929Z,89.65
2023-02-07T18:27:42.080Z,89.61
2023-02-07T18:30:17.064Z,89.63
2023-02-07T18:32:51.537Z,89.68
2023-02-07T18:35:25.491Z,89.71
2023-02-07T18:38:00.429Z,89.73
2023-02-07T18:40:34.922Z,89.78
2023-02-07T18:43:08.028Z,89.83
2023-02-07T18:45:42.726Z,89.88
2023-02-07T18:48:16.695Z,89.94
2023-02-07T18:50:50.551Z,89.99
2023-02-07T18:53:25.423Z,90.06
2023-02-07T18:56:06.113Z,90.09
2023-02-07T18:58:40.329Z,90.06
2023-02-07T19:01:20.481Z,90.15
2023-02-07T19:03:56.525Z,90.15
2023-02-07T19:06:33.542Z,90.10
2023-02-07T19:09:11.687Z,90.04
2023-02-07T19:11:46.428Z,90.05
2023-02-07T19:14:25.001Z,90.01
2023-02-07T19:16:59.473Z,89.96
2023-02-07T19:19:34.579Z,90.02
2023-02-07T19:22:08.468Z,90.05
2023-02-07T19:24:42.930Z,90.03
2023-02-07T19:27:16.998Z,90.06
2023-02-07T19:29:50.015Z,90.13
2023-02-07T19:32:24.377Z,90.16
2023-02-07T19:34:57.486Z,90.21
2023-02-07T19:37:31.227Z,90.24
2023-02-07T19:40:05.515Z,90.26
2023-02-07T19:42:39.754Z,90.21
2023-02-07T19:45:13.802Z,90.26
2023-02-07T19:47:49.244Z,90.24
2023-02-07T19:50:23.882Z,90.22
2023-02-07T19:52:57.942Z,90.15
2023-02-07T19:55:31.983Z,90.28
2023-02-07T19:58:06.857Z,90.22
2023-02-07T20:00:43.217Z,90.04
2023-02-07T20:03:17.139Z,89.95
2023-02-07T20:05:53.285Z,90.00
2023-02-07T20:08:28.112Z,90.00
2023-02-07T20:11:07.731Z,90.02
2023-02-07T20:13:44.952Z,89.97
2023-02-07T20:16:25.746Z,89.98
2023-02-07T20:18:59.734Z,89.96
2023-02-07T20:21:34.816Z,89.91
2023-02-07T20:24:10.336Z,90.01
2023-02-07T20:26:46.701Z,89.98
2023-02-07T20:29:23.298Z,89.96
2023-02-07T20:31:57.476Z,90.10
2023-02-07T20:34:31.368Z,90.26
2023-02-07T20:37:05.514Z,90.34
2023-02-07T20:39:38.951Z,90.17
2023-02-07T20:42:12.539Z,90.12
2023-02-07T20:44:45.674Z,90.06
2023-02-07T20:47:19.445Z,90.05
2023-02-07T20:49:54.154Z,90.13
2023-02-07T20:52:29.893Z,90.11
2023-02-07T20:55:04.767Z,90.09
2023-02-07T20:57:38.723Z,90.06
2023-02-07T21:00:14.148Z,90.11
2023-02-07T21:02:48.586Z,90.08
2023-02-07T21:05:22.391Z,90.09
2023-02-07T21:07:55.447Z,90.09
2023-02-07T21:10:29.980Z,90.09
2023-02-07T21:13:04.321Z,90.04
2023-02-07T21:15:39.300Z,90.06
2023-02-07T21:18:13.218Z,90.12
2023-02-07T21:20:47.885Z,90.17
2023-02-07T21:23:22.177Z,90.22
2023-02-07T21:25:56.456Z,90.32
2023-02-07T21:28:30.472Z,90.28
2023-02-07T21:31:11.450Z,90.34
2023-02-07T21:33:45.836Z,90.35
2023-02-07T21:36:23.990Z,90.32
2023-02-07T21:39:00.370Z,90.27
2023-02-07T21:41:34.565Z,90.25
2023-02-07T21:44:08.627Z,90.28
2023-02-07T21:46:46.419Z,90.26
2023-02-07T21:49:21.209Z,90.33
2023-02-07T21:51:55.409Z,90.40
2023-02-07T21:54:29.074Z,90.43
2023-02-07T21:57:03.045Z,90.51
2023-02-07T21:59:38.719Z,90.56
2023-02-07T22:02:15.942Z,90.52
2023-02-07T22:04:50.497Z,90.52
2023-02-07T22:07:24.717Z,90.49
2023-02-07T22:09:58.773Z,90.37
2023-02-07T22:12:32.939Z,90.45
2023-02-07T22:15:07.606Z,90.49
2023-02-07T22:17:41.646Z,90.45
2023-02-07T22:20:15.957Z,90.43
2023-02-07T22:22:49.556Z,90.38
2023-02-07T22:25:23.055Z,90.46
2023-02-07T22:27:56.934Z,90.38
2023-02-07T22:30:31.228Z,90.43
2023-02-07T22:33:07.456Z,90.48
2023-02-07T22:35:44.024Z,90.46
2023-02-07T22:38:18.401Z,90.41
2023-02-07T22:40:52.794Z,90.38
2023-02-07T22:43:26.467Z,90.31
2023-02-07T22:46:06.528Z,90.31
2023-02-07T22:48:40.620Z,90.44
2023-02-07T22:51:36.223Z,90.47
2023-02-07T22:54:15.429Z,90.45
2023-02-07T22:56:49.650Z,90.42
2023-02-07T22:59:22.650Z,90.43
2023-02-07T23:01:56.486Z,90.36
2023-02-07T23:04:30.578Z,90.43
2023-02-07T23:07:04.589Z,90.48
2023-02-07T23:09:38.441Z,90.42
2023-02-07T23:12:12.594Z,90.45
2023-02-07T23:14:46.765Z,90.44
2023-02-07T23:17:21.237Z,90.38
2023-02-07T23:19:56.483Z,90.41
2023-02-07T23:22:30.386Z,90.48
2023-02-07T23:25:05.008Z,90.57
2023-02-07T23:27:39.029Z,90.65
2023-02-07T23:30:15.479Z,90.60
2023-02-07T23:32:49.328Z,90.65
2023-02-07T23:35:23.436Z,90.62
2023-02-07T23:37:58.294Z,90.64
2023-02-07T23:40:33.157Z,90.60
2023-02-07T23:43:08.240Z,90.58
2023-02-07T23:45:42.004Z,90.61
2023-02-07T23:48:15.913Z,90.54
2023-02-07T23:50:58.789Z,90.55
2023-02-07T23:53:33.205Z,90.60
2023-02-07T23:56:08.557Z,90.53
2023-02-07T23:58:42.750Z,90.47
